sensor_id;sensor_type;location;lat;lon;timestamp;P1;durP1;ratioP1;P2;durP2;ratioP2
23159;SDS011;11748;50.844;4.396;2022-07-12T00:02:00;3.88;;;2.55;;
23159;SDS011;11748;50.844;4.396;2022-07-12T00:04:27;4.43;;;2.47;;
23159;SDS011;11748;50.844;4.396;2022-07-12T00:06:52;3.95;;;2.80;;
23159;SDS011;11748;50.844;4.396;2022-07-12T00:09:18;3.13;;;2.38;;
23159;SDS011;11748;50.844;4.396;2022-07-12T00:11:44;3.42;;;2.40;;
23159;SDS011;11748;50.844;4.396;2022-07-12T00:14:09;5.72;;;2.20;;
23159;SDS011;11748;50.844;4.396;2022-07-12T00:16:36;4.25;;;2.40;;
23159;SDS011;11748;50.844;4.396;2022-07-12T00:19:01;3.75;;;2.90;;
23159;SDS011;11748;50.844;4.396;2022-07-12T00:21:27;4.85;;;3.00;;
23159;SDS011;11748;50.844;4.396;2022-07-12T00:23:53;3.88;;;2.95;;
23159;SDS011;11748;50.844;4.396;2022-07-12T00:26:19;4.43;;;2.80;;
23159;SDS011;11748;50.844;4.396;2022-07-12T00:28:44;3.50;;;2.50;;
23159;SDS011;11748;50.844;4.396;2022-07-12T00:31:10;4.60;;;2.55;;
23159;SDS011;11748;50.844;4.396;2022-07-12T00:33:36;5.38;;;2.70;;
23159;SDS011;11748;50.844;4.396;2022-07-12T00:36:02;2.92;;;2.63;;
23159;SDS011;11748;50.844;4.396;2022-07-12T00:38:28;2.45;;;2.20;;
23159;SDS011;11748;50.844;4.396;2022-07-12T00:40:54;4.18;;;2.80;;
23159;SDS011;11748;50.844;4.396;2022-07-12T00:43:19;4.25;;;2.53;;
23159;SDS011;11748;50.844;4.396;2022-07-12T00:45:45;2.72;;;2.35;;
23159;SDS011;11748;50.844;4.396;2022-07-12T00:48:11;3.40;;;2.30;;
23159;SDS011;11748;50.844;4.396;2022-07-12T00:50:37;3.63;;;2.60;;
23159;SDS011;11748;50.844;4.396;2022-07-12T00:53:03;4.32;;;3.17;;
23159;SDS011;11748;50.844;4.396;2022-07-12T00:55:28;5.13;;;2.40;;
23159;SDS011;11748;50.844;4.396;2022-07-12T00:57:54;4.10;;;2.58;;
23159;SDS011;11748;50.844;4.396;2022-07-12T01:00:21;4.80;;;2.80;;
23159;SDS011;11748;50.844;4.396;2022-07-12T01:02:50;4.18;;;2.95;;
23159;SDS011;11748;50.844;4.396;2022-07-12T01:05:17;4.18;;;2.80;;
23159;SDS011;11748;50.844;4.396;2022-07-12T01:07:44;4.05;;;2.65;;
23159;SDS011;11748;50.844;4.396;2022-07-12T01:10:11;7.10;;;2.80;;
23159;SDS011;11748;50.844;4.396;2022-07-12T01:12:37;4.00;;;3.05;;
23159;SDS011;11748;50.844;4.396;2022-07-12T01:15:06;4.75;;;2.97;;
23159;SDS011;11748;50.844;4.396;2022-07-12T01:17:33;3.80;;;2.75;;
23159;SDS011;11748;50.844;4.396;2022-07-12T01:19:59;3.88;;;3.13;;
23159;SDS011;11748;50.844;4.396;2022-07-12T01:22:33;3.35;;;2.92;;
23159;SDS011;11748;50.844;4.396;2022-07-12T01:25:01;5.97;;;2.80;;
23159;SDS011;11748;50.844;4.396;2022-07-12T01:27:28;4.70;;;3.03;;
23159;SDS011;11748;50.844;4.396;2022-07-12T01:29:54;3.75;;;3.00;;
23159;SDS011;11748;50.844;4.396;2022-07-12T01:32:20;4.55;;;3.47;;
23159;SDS011;11748;50.844;4.396;2022-07-12T01:34:53;3.72;;;3.17;;
23159;SDS011;11748;50.844;4.396;2022-07-12T01:39:51;5.13;;;3.35;;
23159;SDS011;11748;50.844;4.396;2022-07-12T01:42:18;5.97;;;3.38;;
23159;SDS011;11748;50.844;4.396;2022-07-12T01:44:48;6.53;;;3.30;;
23159;SDS011;11748;50.844;4.396;2022-07-12T01:47:15;4.18;;;3.28;;
23159;SDS011;11748;50.844;4.396;2022-07-12T01:49:45;5.78;;;3.20;;
23159;SDS011;11748;50.844;4.396;2022-07-12T01:52:11;3.63;;;3.22;;
23159;SDS011;11748;50.844;4.396;2022-07-12T01:54:38;4.82;;;3.65;;
23159;SDS011;11748;50.844;4.396;2022-07-12T01:57:04;4.90;;;3.40;;
23159;SDS011;11748;50.844;4.396;2022-07-12T01:59:30;4.20;;;2.92;;
23159;SDS011;11748;50.844;4.396;2022-07-12T02:01:57;3.60;;;3.17;;
23159;SDS011;11748;50.844;4.396;2022-07-12T02:04:23;3.42;;;3.13;;
23159;SDS011;11748;50.844;4.396;2022-07-12T02:06:49;4.72;;;3.55;;
23159;SDS011;11748;50.844;4.396;2022-07-12T02:09:16;4.22;;;3.25;;
23159;SDS011;11748;50.844;4.396;2022-07-12T02:11:43;4.22;;;3.15;;
23159;SDS011;11748;50.844;4.396;2022-07-12T02:14:10;3.97;;;3.13;;
23159;SDS011;11748;50.844;4.396;2022-07-12T02:16:39;3.33;;;3.00;;
23159;SDS011;11748;50.844;4.396;2022-07-12T02:19:06;5.65;;;3.05;;
23159;SDS011;11748;50.844;4.396;2022-07-12T02:21:32;4.65;;;3.35;;
23159;SDS011;11748;50.844;4.396;2022-07-12T02:23:58;4.30;;;3.50;;
23159;SDS011;11748;50.844;4.396;2022-07-12T02:26:25;5.15;;;2.97;;
23159;SDS011;11748;50.844;4.396;2022-07-12T02:28:51;4.78;;;3.10;;
23159;SDS011;11748;50.844;4.396;2022-07-12T02:31:17;3.83;;;2.90;;
23159;SDS011;11748;50.844;4.396;2022-07-12T02:33:43;3.80;;;3.00;;
23159;SDS011;11748;50.844;4.396;2022-07-12T02:36:08;4.45;;;3.45;;
23159;SDS011;11748;50.844;4.396;2022-07-12T02:38:34;4.85;;;3.17;;
23159;SDS011;11748;50.844;4.396;2022-07-12T02:41:00;4.30;;;3.28;;
23159;SDS011;11748;50.844;4.396;2022-07-12T02:43:27;3.97;;;2.90;;
23159;SDS011;11748;50.844;4.396;2022-07-12T02:46:02;4.80;;;3.22;;
23159;SDS011;11748;50.844;4.396;2022-07-12T02:48:30;3.53;;;3.17;;
23159;SDS011;11748;50.844;4.396;2022-07-12T02:50:55;3.35;;;2.88;;
23159;SDS011;11748;50.844;4.396;2022-07-12T02:53:21;3.50;;;3.20;;
23159;SDS011;11748;50.844;4.396;2022-07-12T02:55:47;7.53;;;3.50;;
23159;SDS011;11748;50.844;4.396;2022-07-12T02:58:13;5.32;;;3.17;;
23159;SDS011;11748;50.844;4.396;2022-07-12T03:00:40;4.82;;;3.17;;
23159;SDS011;11748;50.844;4.396;2022-07-12T03:03:08;4.63;;;3.30;;
23159;SDS011;11748;50.844;4.396;2022-07-12T03:05:34;4.03;;;3.50;;
23159;SDS011;11748;50.844;4.396;2022-07-12T03:08:03;4.43;;;3.28;;
23159;SDS011;11748;50.844;4.396;2022-07-12T03:10:30;3.80;;;3.50;;
23159;SDS011;11748;50.844;4.396;2022-07-12T03:12:56;6.20;;;3.72;;
23159;SDS011;11748;50.844;4.396;2022-07-12T03:15:22;4.50;;;3.78;;
23159;SDS011;11748;50.844;4.396;2022-07-12T03:17:47;4.45;;;3.33;;
23159;SDS011;11748;50.844;4.396;2022-07-12T03:20:13;5.03;;;3.80;;
23159;SDS011;11748;50.844;4.396;2022-07-12T03:22:43;4.53;;;3.40;;
23159;SDS011;11748;50.844;4.396;2022-07-12T03:25:11;4.82;;;3.63;;
23159;SDS011;11748;50.844;4.396;2022-07-12T03:27:37;3.70;;;3.40;;
23159;SDS011;11748;50.844;4.396;2022-07-12T03:30:03;4.40;;;3.35;;
23159;SDS011;11748;50.844;4.396;2022-07-12T03:32:30;4.90;;;3.67;;
23159;SDS011;11748;50.844;4.396;2022-07-12T03:34:56;3.80;;;3.47;;
23159;SDS011;11748;50.844;4.396;2022-07-12T03:37:21;5.40;;;3.80;;
23159;SDS011;11748;50.844;4.396;2022-07-12T03:39:47;4.32;;;3.92;;
23159;SDS011;11748;50.844;4.396;2022-07-12T03:42:13;5.35;;;4.00;;
23159;SDS011;11748;50.844;4.396;2022-07-12T03:44:38;7.38;;;4.20;;
23159;SDS011;11748;50.844;4.396;2022-07-12T03:47:04;4.75;;;3.90;;
23159;SDS011;11748;50.844;4.396;2022-07-12T03:49:30;5.32;;;4.05;;
23159;SDS011;11748;50.844;4.396;2022-07-12T03:51:56;7.13;;;4.40;;
23159;SDS011;11748;50.844;4.396;2022-07-12T03:54:22;5.93;;;4.65;;
23159;SDS011;11748;50.844;4.396;2022-07-12T03:56:48;5.85;;;4.65;;
23159;SDS011;11748;50.844;4.396;2022-07-12T03:59:32;6.13;;;4.67;;
23159;SDS011;11748;50.844;4.396;2022-07-12T04:01:58;6.95;;;5.22;;
23159;SDS011;11748;50.844;4.396;2022-07-12T04:04:23;5.47;;;4.20;;
23159;SDS011;11748;50.844;4.396;2022-07-12T04:06:49;5.07;;;4.57;;
23159;SDS011;11748;50.844;4.396;2022-07-12T04:09:15;7.22;;;4.85;;
23159;SDS011;11748;50.844;4.396;2022-07-12T04:11:40;6.03;;;5.43;;
23159;SDS011;11748;50.844;4.396;2022-07-12T04:14:06;7.40;;;5.10;;
23159;SDS011;11748;50.844;4.396;2022-07-12T04:16:32;7.95;;;4.88;;
23159;SDS011;11748;50.844;4.396;2022-07-12T04:18:58;5.65;;;4.78;;
23159;SDS011;11748;50.844;4.396;2022-07-12T04:21:23;6.95;;;5.22;;
23159;SDS011;11748;50.844;4.396;2022-07-12T04:23:49;6.93;;;5.03;;
23159;SDS011;11748;50.844;4.396;2022-07-12T04:26:15;5.82;;;5.22;;
23159;SDS011;11748;50.844;4.396;2022-07-12T04:28:41;5.75;;;5.13;;
23159;SDS011;11748;50.844;4.396;2022-07-12T04:31:07;6.32;;;5.60;;
23159;SDS011;11748;50.844;4.396;2022-07-12T04:33:33;7.05;;;5.15;;
23159;SDS011;11748;50.844;4.396;2022-07-12T04:35:59;7.03;;;5.15;;
23159;SDS011;11748;50.844;4.396;2022-07-12T04:38:24;5.78;;;5.20;;
23159;SDS011;11748;50.844;4.396;2022-07-12T04:40:50;5.28;;;4.78;;
23159;SDS011;11748;50.844;4.396;2022-07-12T04:43:16;7.50;;;5.05;;
23159;SDS011;11748;50.844;4.396;2022-07-12T04:45:41;5.90;;;5.22;;
23159;SDS011;11748;50.844;4.396;2022-07-12T04:48:09;5.65;;;5.07;;
23159;SDS011;11748;50.844;4.396;2022-07-12T04:50:35;6.03;;;5.43;;
23159;SDS011;11748;50.844;4.396;2022-07-12T04:53:02;5.80;;;5.10;;
23159;SDS011;11748;50.844;4.396;2022-07-12T04:55:28;5.60;;;4.90;;
23159;SDS011;11748;50.844;4.396;2022-07-12T04:57:54;5.47;;;4.65;;
23159;SDS011;11748;50.844;4.396;2022-07-12T05:00:19;5.85;;;5.00;;
23159;SDS011;11748;50.844;4.396;2022-07-12T05:02:45;7.75;;;4.80;;
23159;SDS011;11748;50.844;4.396;2022-07-12T05:05:11;7.18;;;5.25;;
23159;SDS011;11748;50.844;4.396;2022-07-12T05:07:37;6.97;;;5.90;;
23159;SDS011;11748;50.844;4.396;2022-07-12T05:10:03;6.38;;;5.78;;
23159;SDS011;11748;50.844;4.396;2022-07-12T05:12:29;7.93;;;5.45;;
23159;SDS011;11748;50.844;4.396;2022-07-12T05:14:55;7.97;;;5.80;;
23159;SDS011;11748;50.844;4.396;2022-07-12T05:17:21;6.75;;;5.68;;
23159;SDS011;11748;50.844;4.396;2022-07-12T05:19:46;5.78;;;5.28;;
23159;SDS011;11748;50.844;4.396;2022-07-12T05:22:12;6.88;;;5.45;;
23159;SDS011;11748;50.844;4.396;2022-07-12T05:24:39;6.80;;;5.45;;
23159;SDS011;11748;50.844;4.396;2022-07-12T05:27:04;7.05;;;5.25;;
23159;SDS011;11748;50.844;4.396;2022-07-12T05:29:30;7.47;;;6.00;;
23159;SDS011;11748;50.844;4.396;2022-07-12T05:31:56;7.70;;;5.60;;
23159;SDS011;11748;50.844;4.396;2022-07-12T05:34:23;7.18;;;5.68;;
23159;SDS011;11748;50.844;4.396;2022-07-12T05:36:48;8.80;;;6.07;;
23159;SDS011;11748;50.844;4.396;2022-07-12T05:39:14;7.07;;;5.80;;
23159;SDS011;11748;50.844;4.396;2022-07-12T05:41:40;6.70;;;4.93;;
23159;SDS011;11748;50.844;4.396;2022-07-12T05:44:06;6.70;;;5.80;;
23159;SDS011;11748;50.844;4.396;2022-07-12T05:46:31;6.10;;;5.50;;
23159;SDS011;11748;50.844;4.396;2022-07-12T05:48:58;10.85;;;6.20;;
23159;SDS011;11748;50.844;4.396;2022-07-12T05:51:23;7.70;;;6.03;;
23159;SDS011;11748;50.844;4.396;2022-07-12T05:54:08;6.78;;;6.18;;
23159;SDS011;11748;50.844;4.396;2022-07-12T05:56:35;6.45;;;5.85;;
23159;SDS011;11748;50.844;4.396;2022-07-12T05:59:01;8.50;;;5.95;;
23159;SDS011;11748;50.844;4.396;2022-07-12T06:01:26;6.82;;;5.28;;
23159;SDS011;11748;50.844;4.396;2022-07-12T06:03:52;8.10;;;6.07;;
23159;SDS011;11748;50.844;4.396;2022-07-12T06:06:18;7.82;;;6.65;;
23159;SDS011;11748;50.844;4.396;2022-07-12T06:08:43;10.00;;;6.60;;
23159;SDS011;11748;50.844;4.396;2022-07-12T06:11:09;7.43;;;6.72;;
23159;SDS011;11748;50.844;4.396;2022-07-12T06:13:35;9.52;;;6.70;;
23159;SDS011;11748;50.844;4.396;2022-07-12T06:16:00;7.68;;;6.97;;
23159;SDS011;11748;50.844;4.396;2022-07-12T06:18:26;7.90;;;7.20;;
23159;SDS011;11748;50.844;4.396;2022-07-12T06:20:53;7.63;;;6.82;;
23159;SDS011;11748;50.844;4.396;2022-07-12T06:23:20;6.45;;;5.85;;
23159;SDS011;11748;50.844;4.396;2022-07-12T06:25:45;7.32;;;6.72;;
23159;SDS011;11748;50.844;4.396;2022-07-12T06:28:11;7.50;;;6.40;;
23159;SDS011;11748;50.844;4.396;2022-07-12T06:30:37;6.75;;;6.15;;
23159;SDS011;11748;50.844;4.396;2022-07-12T06:33:03;7.45;;;6.75;;
23159;SDS011;11748;50.844;4.396;2022-07-12T06:35:29;7.10;;;6.15;;
23159;SDS011;11748;50.844;4.396;2022-07-12T06:37:55;7.15;;;6.45;;
23159;SDS011;11748;50.844;4.396;2022-07-12T06:40:21;8.43;;;6.97;;
23159;SDS011;11748;50.844;4.396;2022-07-12T06:42:47;9.55;;;7.07;;
23159;SDS011;11748;50.844;4.396;2022-07-12T06:45:14;7.07;;;6.15;;
23159;SDS011;11748;50.844;4.396;2022-07-12T06:47:39;24.88;;;19.83;;
23159;SDS011;11748;50.844;4.396;2022-07-12T06:50:05;7.40;;;6.70;;
23159;SDS011;11748;50.844;4.396;2022-07-12T06:52:31;6.50;;;5.90;;
23159;SDS011;11748;50.844;4.396;2022-07-12T06:54:57;6.40;;;5.80;;
23159;SDS011;11748;50.844;4.396;2022-07-12T06:57:23;7.70;;;6.30;;
23159;SDS011;11748;50.844;4.396;2022-07-12T06:59:51;6.75;;;6.15;;
23159;SDS011;11748;50.844;4.396;2022-07-12T07:02:17;6.78;;;6.07;;
23159;SDS011;11748;50.844;4.396;2022-07-12T07:04:43;8.10;;;6.05;;
23159;SDS011;11748;50.844;4.396;2022-07-12T07:07:09;7.60;;;6.20;;
23159;SDS011;11748;50.844;4.396;2022-07-12T07:09:34;10.13;;;6.65;;
23159;SDS011;11748;50.844;4.396;2022-07-12T07:12:00;7.15;;;6.45;;
23159;SDS011;11748;50.844;4.396;2022-07-12T07:14:27;6.85;;;6.25;;
23159;SDS011;11748;50.844;4.396;2022-07-12T07:16:53;7.32;;;5.93;;
23159;SDS011;11748;50.844;4.396;2022-07-12T07:19:19;7.38;;;6.07;;
23159;SDS011;11748;50.844;4.396;2022-07-12T07:21:47;6.90;;;6.18;;
23159;SDS011;11748;50.844;4.396;2022-07-12T07:24:13;6.95;;;6.25;;
23159;SDS011;11748;50.844;4.396;2022-07-12T07:26:39;9.80;;;5.97;;
23159;SDS011;11748;50.844;4.396;2022-07-12T07:29:05;6.97;;;5.95;;
23159;SDS011;11748;50.844;4.396;2022-07-12T07:31:49;7.30;;;6.60;;
23159;SDS011;11748;50.844;4.396;2022-07-12T07:34:14;8.60;;;6.32;;
23159;SDS011;11748;50.844;4.396;2022-07-12T07:36:40;6.35;;;5.72;;
23159;SDS011;11748;50.844;4.396;2022-07-12T07:39:06;6.38;;;5.72;;
23159;SDS011;11748;50.844;4.396;2022-07-12T07:41:33;6.57;;;5.97;;
23159;SDS011;11748;50.844;4.396;2022-07-12T07:43:58;6.43;;;5.75;;
23159;SDS011;11748;50.844;4.396;2022-07-12T07:46:24;6.97;;;5.93;;
23159;SDS011;11748;50.844;4.396;2022-07-12T07:48:50;6.43;;;5.55;;
23159;SDS011;11748;50.844;4.396;2022-07-12T07:51:15;6.25;;;5.63;;
23159;SDS011;11748;50.844;4.396;2022-07-12T07:53:41;8.82;;;5.82;;
23159;SDS011;11748;50.844;4.396;2022-07-12T07:56:07;7.90;;;6.20;;
23159;SDS011;11748;50.844;4.396;2022-07-12T07:58:33;7.28;;;6.13;;
23159;SDS011;11748;50.844;4.396;2022-07-12T08:00:58;6.47;;;5.88;;
23159;SDS011;11748;50.844;4.396;2022-07-12T08:03:24;7.70;;;5.72;;
23159;SDS011;11748;50.844;4.396;2022-07-12T08:05:50;5.90;;;5.32;;
23159;SDS011;11748;50.844;4.396;2022-07-12T08:08:16;7.25;;;5.22;;
23159;SDS011;11748;50.844;4.396;2022-07-12T08:10:43;5.97;;;5.25;;
23159;SDS011;11748;50.844;4.396;2022-07-12T08:13:09;6.75;;;4.78;;
23159;SDS011;11748;50.844;4.396;2022-07-12T08:15:35;6.38;;;5.30;;
23159;SDS011;11748;50.844;4.396;2022-07-12T08:18:02;6.95;;;5.68;;
23159;SDS011;11748;50.844;4.396;2022-07-12T08:20:28;5.90;;;5.40;;
23159;SDS011;11748;50.844;4.396;2022-07-12T08:22:54;7.72;;;5.10;;
23159;SDS011;11748;50.844;4.396;2022-07-12T08:25:20;6.22;;;4.55;;
23159;SDS011;11748;50.844;4.396;2022-07-12T08:27:46;5.13;;;4.53;;
23159;SDS011;11748;50.844;4.396;2022-07-12T08:30:12;6.57;;;4.97;;
23159;SDS011;11748;50.844;4.396;2022-07-12T08:32:42;7.18;;;4.88;;
23159;SDS011;11748;50.844;4.396;2022-07-12T08:35:12;5.23;;;4.73;;
23159;SDS011;11748;50.844;4.396;2022-07-12T08:37:39;5.20;;;4.70;;
23159;SDS011;11748;50.844;4.396;2022-07-12T08:40:06;5.15;;;4.65;;
23159;SDS011;11748;50.844;4.396;2022-07-12T08:42:32;5.53;;;5.03;;
23159;SDS011;11748;50.844;4.396;2022-07-12T08:44:59;6.57;;;5.50;;
23159;SDS011;11748;50.844;4.396;2022-07-12T08:47:24;7.43;;;5.15;;
23159;SDS011;11748;50.844;4.396;2022-07-12T08:52:40;7.75;;;4.47;;
23159;SDS011;11748;50.844;4.396;2022-07-12T08:57:48;5.22;;;4.72;;
23159;SDS011;11748;50.844;4.396;2022-07-12T09:00:15;5.30;;;4.78;;
23159;SDS011;11748;50.844;4.396;2022-07-12T09:02:51;5.97;;;5.15;;
23159;SDS011;11748;50.844;4.396;2022-07-12T09:05:22;5.55;;;4.63;;
23159;SDS011;11748;50.844;4.396;2022-07-12T09:08:11;6.13;;;4.88;;
23159;SDS011;11748;50.844;4.396;2022-07-12T09:13:15;5.07;;;4.30;;
23159;SDS011;11748;50.844;4.396;2022-07-12T09:15:41;6.60;;;4.22;;
23159;SDS011;11748;50.844;4.396;2022-07-12T09:18:07;5.50;;;4.43;;
23159;SDS011;11748;50.844;4.396;2022-07-12T09:20:49;5.05;;;4.47;;
23159;SDS011;11748;50.844;4.396;2022-07-12T09:23:16;6.85;;;4.47;;
23159;SDS011;11748;50.844;4.396;2022-07-12T09:25:47;4.68;;;4.28;;
23159;SDS011;11748;50.844;4.396;2022-07-12T09:28:14;7.25;;;4.25;;
23159;SDS011;11748;50.844;4.396;2022-07-12T09:30:46;4.75;;;4.35;;
23159;SDS011;11748;50.844;4.396;2022-07-12T09:33:17;4.35;;;3.63;;
23159;SDS011;11748;50.844;4.396;2022-07-12T09:36:02;5.90;;;3.63;;
23159;SDS011;11748;50.844;4.396;2022-07-12T09:38:32;5.60;;;4.03;;
23159;SDS011;11748;50.844;4.396;2022-07-12T09:40:58;4.95;;;4.15;;
23159;SDS011;11748;50.844;4.396;2022-07-12T09:43:25;5.10;;;4.25;;
23159;SDS011;11748;50.844;4.396;2022-07-12T09:45:52;6.32;;;3.88;;
23159;SDS011;11748;50.844;4.396;2022-07-12T09:48:19;6.35;;;4.15;;
23159;SDS011;11748;50.844;4.396;2022-07-12T09:50:49;4.50;;;4.10;;
23159;SDS011;11748;50.844;4.396;2022-07-12T09:54:01;5.70;;;4.10;;
23159;SDS011;11748;50.844;4.396;2022-07-12T09:56:15;17.65;;;4.47;;
23159;SDS011;11748;50.844;4.396;2022-07-12T09:58:52;4.78;;;3.85;;
23159;SDS011;11748;50.844;4.396;2022-07-12T10:01:18;5.57;;;3.58;;
23159;SDS011;11748;50.844;4.396;2022-07-12T10:03:45;5.15;;;3.17;;
23159;SDS011;11748;50.844;4.396;2022-07-12T10:06:13;5.82;;;3.30;;
23159;SDS011;11748;50.844;4.396;2022-07-12T10:08:45;6.50;;;4.20;;
23159;SDS011;11748;50.844;4.396;2022-07-12T10:11:11;6.47;;;3.40;;
23159;SDS011;11748;50.844;4.396;2022-07-12T10:13:38;5.28;;;3.60;;
23159;SDS011;11748;50.844;4.396;2022-07-12T10:16:04;4.30;;;3.95;;
23159;SDS011;11748;50.844;4.396;2022-07-12T10:18:30;6.03;;;3.67;;
23159;SDS011;11748;50.844;4.396;2022-07-12T10:20:56;5.35;;;4.05;;
23159;SDS011;11748;50.844;4.396;2022-07-12T10:26:01;5.13;;;3.90;;
23159;SDS011;11748;50.844;4.396;2022-07-12T10:28:57;3.50;;;3.20;;
23159;SDS011;11748;50.844;4.396;2022-07-12T10:31:29;5.50;;;3.10;;
23159;SDS011;11748;50.844;4.396;2022-07-12T10:37:18;4.00;;;2.88;;
23159;SDS011;11748;50.844;4.396;2022-07-12T10:39:20;3.28;;;2.83;;
23159;SDS011;11748;50.844;4.396;2022-07-12T10:44:33;4.15;;;3.22;;
23159;SDS011;11748;50.844;4.396;2022-07-12T10:47:01;4.15;;;3.72;;
23159;SDS011;11748;50.844;4.396;2022-07-12T10:49:28;6.43;;;3.72;;
23159;SDS011;11748;50.844;4.396;2022-07-12T10:54:39;6.03;;;3.30;;
23159;SDS011;11748;50.844;4.396;2022-07-12T10:57:07;4.07;;;3.38;;
23159;SDS011;11748;50.844;4.396;2022-07-12T10:59:33;3.30;;;3.00;;
23159;SDS011;11748;50.844;4.396;2022-07-12T11:02:01;3.40;;;3.10;;
23159;SDS011;11748;50.844;4.396;2022-07-12T11:04:28;3.00;;;2.80;;
23159;SDS011;11748;50.844;4.396;2022-07-12T11:06:54;3.88;;;3.00;;
23159;SDS011;11748;50.844;4.396;2022-07-12T11:09:23;2.92;;;2.63;;
23159;SDS011;11748;50.844;4.396;2022-07-12T11:11:50;4.80;;;3.10;;
23159;SDS011;11748;50.844;4.396;2022-07-12T11:14:23;4.35;;;2.80;;
23159;SDS011;11748;50.844;4.396;2022-07-12T11:16:49;4.38;;;3.97;;
23159;SDS011;11748;50.844;4.396;2022-07-12T11:19:21;4.35;;;2.70;;
23159;SDS011;11748;50.844;4.396;2022-07-12T11:21:48;2.95;;;2.65;;
23159;SDS011;11748;50.844;4.396;2022-07-12T11:24:21;3.20;;;2.25;;
23159;SDS011;11748;50.844;4.396;2022-07-12T11:26:48;3.03;;;2.83;;
23159;SDS011;11748;50.844;4.396;2022-07-12T11:29:14;3.45;;;2.85;;
23159;SDS011;11748;50.844;4.396;2022-07-12T11:31:40;3.97;;;2.95;;
23159;SDS011;11748;50.844;4.396;2022-07-12T11:34:06;3.75;;;3.10;;
23159;SDS011;11748;50.844;4.396;2022-07-12T11:36:32;3.20;;;2.90;;
23159;SDS011;11748;50.844;4.396;2022-07-12T11:38:58;4.10;;;2.70;;
23159;SDS011;11748;50.844;4.396;2022-07-12T11:41:25;2.85;;;2.58;;
23159;SDS011;11748;50.844;4.396;2022-07-12T11:43:51;2.78;;;2.58;;
23159;SDS011;11748;50.844;4.396;2022-07-12T11:46:17;3.83;;;2.80;;
23159;SDS011;11748;50.844;4.396;2022-07-12T11:48:43;5.13;;;3.83;;
23159;SDS011;11748;50.844;4.396;2022-07-12T11:51:10;4.50;;;3.50;;
23159;SDS011;11748;50.844;4.396;2022-07-12T11:53:38;4.03;;;3.03;;
23159;SDS011;11748;50.844;4.396;2022-07-12T11:56:07;3.60;;;2.60;;
23159;SDS011;11748;50.844;4.396;2022-07-12T11:58:34;4.30;;;2.42;;
23159;SDS011;11748;50.844;4.396;2022-07-12T12:01:03;3.90;;;2.80;;
23159;SDS011;11748;50.844;4.396;2022-07-12T12:03:30;7.47;;;5.10;;
23159;SDS011;11748;50.844;4.396;2022-07-12T12:05:57;3.22;;;2.72;;
23159;SDS011;11748;50.844;4.396;2022-07-12T12:08:23;2.85;;;2.40;;
23159;SDS011;11748;50.844;4.396;2022-07-12T12:10:53;2.83;;;2.30;;
23159;SDS011;11748;50.844;4.396;2022-07-12T12:13:20;4.00;;;2.30;;
23159;SDS011;11748;50.844;4.396;2022-07-12T12:15:49;4.00;;;2.45;;
23159;SDS011;11748;50.844;4.396;2022-07-12T12:18:26;3.10;;;2.38;;
23159;SDS011;11748;50.844;4.396;2022-07-12T12:21:00;4.30;;;2.92;;
23159;SDS011;11748;50.844;4.396;2022-07-12T12:23:28;7.07;;;3.05;;
23159;SDS011;11748;50.844;4.396;2022-07-12T12:28:42;3.30;;;2.95;;
23159;SDS011;11748;50.844;4.396;2022-07-12T12:31:09;2.75;;;2.50;;
23159;SDS011;11748;50.844;4.396;2022-07-12T12:36:15;7.10;;;3.72;;
23159;SDS011;11748;50.844;4.396;2022-07-12T12:38:43;3.05;;;2.63;;
23159;SDS011;11748;50.844;4.396;2022-07-12T12:41:10;4.10;;;3.15;;
23159;SDS011;11748;50.844;4.396;2022-07-12T12:43:37;4.57;;;3.08;;
23159;SDS011;11748;50.844;4.396;2022-07-12T12:46:03;3.72;;;2.70;;
23159;SDS011;11748;50.844;4.396;2022-07-12T12:48:29;5.18;;;3.15;;
23159;SDS011;11748;50.844;4.396;2022-07-12T12:51:03;6.55;;;2.58;;
23159;SDS011;11748;50.844;4.396;2022-07-12T12:53:33;2.85;;;2.33;;
23159;SDS011;11748;50.844;4.396;2022-07-12T12:56:04;5.50;;;2.60;;
23159;SDS011;11748;50.844;4.396;2022-07-12T12:58:32;5.03;;;2.20;;
23159;SDS011;11748;50.844;4.396;2022-07-12T13:00:58;6.68;;;2.75;;
23159;SDS011;11748;50.844;4.396;2022-07-12T13:03:24;5.38;;;3.03;;
23159;SDS011;11748;50.844;4.396;2022-07-12T13:05:50;6.90;;;3.28;;
23159;SDS011;11748;50.844;4.396;2022-07-12T13:08:15;3.40;;;2.17;;
23159;SDS011;11748;50.844;4.396;2022-07-12T13:10:42;5.93;;;3.08;;
23159;SDS011;11748;50.844;4.396;2022-07-12T13:13:09;4.72;;;2.97;;
23159;SDS011;11748;50.844;4.396;2022-07-12T13:15:36;5.03;;;2.90;;
23159;SDS011;11748;50.844;4.396;2022-07-12T13:18:03;4.93;;;3.28;;
23159;SDS011;11748;50.844;4.396;2022-07-12T13:20:30;5.07;;;3.03;;
23159;SDS011;11748;50.844;4.396;2022-07-12T13:22:56;5.63;;;3.15;;
23159;SDS011;11748;50.844;4.396;2022-07-12T13:25:22;3.80;;;2.90;;
23159;SDS011;11748;50.844;4.396;2022-07-12T13:27:49;3.97;;;2.85;;
23159;SDS011;11748;50.844;4.396;2022-07-12T13:30:15;3.75;;;2.47;;
23159;SDS011;11748;50.844;4.396;2022-07-12T13:32:42;4.28;;;2.53;;
23159;SDS011;11748;50.844;4.396;2022-07-12T13:35:09;2.97;;;2.20;;
23159;SDS011;11748;50.844;4.396;2022-07-12T13:37:35;2.55;;;2.25;;
23159;SDS011;11748;50.844;4.396;2022-07-12T13:40:03;3.88;;;2.10;;
23159;SDS011;11748;50.844;4.396;2022-07-12T13:42:48;6.63;;;2.40;;
23159;SDS011;11748;50.844;4.396;2022-07-12T13:45:18;3.92;;;1.90;;
23159;SDS011;11748;50.844;4.396;2022-07-12T13:47:46;3.20;;;2.25;;
23159;SDS011;11748;50.844;4.396;2022-07-12T13:50:13;4.80;;;2.67;;
23159;SDS011;11748;50.844;4.396;2022-07-12T13:52:41;4.45;;;2.42;;
23159;SDS011;11748;50.844;4.396;2022-07-12T13:55:08;3.85;;;2.17;;
23159;SDS011;11748;50.844;4.396;2022-07-12T13:57:35;2.92;;;2.10;;
23159;SDS011;11748;50.844;4.396;2022-07-12T14:00:03;3.05;;;2.33;;
23159;SDS011;11748;50.844;4.396;2022-07-12T14:02:30;2.55;;;1.92;;
23159;SDS011;11748;50.844;4.396;2022-07-12T14:04:56;3.53;;;2.10;;
23159;SDS011;11748;50.844;4.396;2022-07-12T14:07:21;4.00;;;2.58;;
23159;SDS011;11748;50.844;4.396;2022-07-12T14:09:47;4.80;;;2.28;;
23159;SDS011;11748;50.844;4.396;2022-07-12T14:12:13;4.10;;;2.40;;
23159;SDS011;11748;50.844;4.396;2022-07-12T14:14:39;5.13;;;2.20;;
23159;SDS011;11748;50.844;4.396;2022-07-12T14:17:23;4.47;;;2.20;;
23159;SDS011;11748;50.844;4.396;2022-07-12T14:19:48;3.05;;;2.30;;
23159;SDS011;11748;50.844;4.396;2022-07-12T14:22:14;3.55;;;2.60;;
23159;SDS011;11748;50.844;4.396;2022-07-12T14:24:40;3.03;;;1.88;;
23159;SDS011;11748;50.844;4.396;2022-07-12T14:27:06;3.10;;;1.83;;
23159;SDS011;11748;50.844;4.396;2022-07-12T14:29:32;5.65;;;2.22;;
23159;SDS011;11748;50.844;4.396;2022-07-12T14:31:58;3.45;;;2.22;;
23159;SDS011;11748;50.844;4.396;2022-07-12T14:34:26;2.40;;;1.88;;
23159;SDS011;11748;50.844;4.396;2022-07-12T14:36:52;3.45;;;1.88;;
23159;SDS011;11748;50.844;4.396;2022-07-12T14:39:17;2.97;;;1.50;;
23159;SDS011;11748;50.844;4.396;2022-07-12T14:41:43;3.15;;;1.60;;
23159;SDS011;11748;50.844;4.396;2022-07-12T14:44:09;2.15;;;1.95;;
23159;SDS011;11748;50.844;4.396;2022-07-12T14:46:34;3.25;;;2.28;;
23159;SDS011;11748;50.844;4.396;2022-07-12T14:49:00;3.47;;;1.98;;
23159;SDS011;11748;50.844;4.396;2022-07-12T14:51:26;2.83;;;1.77;;
23159;SDS011;11748;50.844;4.396;2022-07-12T14:53:52;2.83;;;1.77;;
23159;SDS011;11748;50.844;4.396;2022-07-12T14:56:21;2.72;;;1.70;;
23159;SDS011;11748;50.844;4.396;2022-07-12T14:58:47;3.08;;;2.10;;
23159;SDS011;11748;50.844;4.396;2022-07-12T15:01:13;4.28;;;2.63;;
23159;SDS011;11748;50.844;4.396;2022-07-12T15:03:38;2.67;;;2.10;;
23159;SDS011;11748;50.844;4.396;2022-07-12T15:06:04;2.17;;;1.85;;
23159;SDS011;11748;50.844;4.396;2022-07-12T15:08:30;4.40;;;2.10;;
23159;SDS011;11748;50.844;4.396;2022-07-12T15:10:56;1.65;;;1.55;;
23159;SDS011;11748;50.844;4.396;2022-07-12T15:13:23;1.77;;;1.60;;
23159;SDS011;11748;50.844;4.396;2022-07-12T15:15:49;3.42;;;1.92;;